Time;durP1;ratioP1;P1;durP2;ratioP2;P2;SDS_P1;SDS_P2;PMS_P1;PMS_P2;Temp;Humidity;BMP_temperature;BMP_pressure;BME280_temperature;BME280_humidity;BME280_pressure;Samples;Min_cycle;Max_cycle;Signal;HPM_P1;HPM_P2
2021/03/22 00:01:58;;;;;;;0.10;0.10;;;;;;;-2.28;80.71;100036.31;1790631;79;21166;-47
2021/03/22 00:04:59;;;;;;;0.00;0.00;;;;;;;-2.31;80.86;100035.39;1779434;80;21221;-47
2021/03/22 00:08:00;;;;;;;0.20;0.20;;;;;;;-2.33;81.06;100023.54;1787271;80;21123;-48
2021/03/22 00:11:03;;;;;;;0.42;0.40;;;;;;;-2.35;81.23;100021.58;1748606;80;21139;-47
2021/03/22 00:14:03;;;;;;;0.57;0.57;;;;;;;-2.36;81.30;100021.28;1760772;81;21529;-47
2021/03/22 00:17:05;;;;;;;0.95;0.88;;;;;;;-2.39;81.51;100024.38;1760488;79;21535;-47
2021/03/22 00:20:06;;;;;;;0.45;0.45;;;;;;;-2.44;81.73;100016.95;1806627;79;21150;-48
2021/03/22 00:23:08;;;;;;;0.10;0.10;;;;;;;-2.47;81.85;100016.56;1815280;79;21146;-47
2021/03/22 00:26:09;;;;;;;0.30;0.30;;;;;;;-2.48;81.97;100014.89;1814917;79;21138;-47
2021/03/22 00:29:11;;;;;;;0.17;0.17;;;;;;;-2.50;82.15;100011.59;1815262;78;21138;-47
2021/03/22 00:32:14;;;;;;;0.10;0.10;;;;;;;-2.51;82.32;100007.28;1798238;79;21142;-47
2021/03/22 00:35:17;;;;;;;0.30;0.30;;;;;;;-2.52;82.43;99999.78;1784254;80;21166;-47
2021/03/22 00:38:19;;;;;;;0.15;0.15;;;;;;;-2.52;82.48;99994.91;1749007;80;21509;-47
2021/03/22 00:41:22;;;;;;;0.00;0.00;;;;;;;-2.53;82.64;99989.27;1760537;81;21178;-47
2021/03/22 00:44:23;;;;;;;0.10;0.10;;;;;;;-2.57;82.75;99990.20;1760895;81;21146;-47
2021/03/22 00:47:24;;;;;;;0.00;0.00;;;;;;;-2.58;82.89;99993.89;1759976;80;21142;-47
2021/03/22 00:50:37;;;;;;;0.05;0.05;;;;;;;-2.62;83.09;99990.81;1760476;81;21142;-47
2021/03/22 00:53:38;;;;;;;0.23;0.23;;;;;;;-2.64;83.24;99980.83;1815047;79;21103;-47
2021/03/22 00:56:38;;;;;;;0.10;0.10;;;;;;;-2.66;83.44;99980.20;1814940;79;21111;-47
2021/03/22 00:59:39;;;;;;;0.15;0.15;;;;;;;-2.67;83.50;99974.55;1815096;78;21059;-47
2021/03/22 01:02:39;;;;;;;0.65;0.65;;;;;;;-2.68;83.72;99975.56;1783095;79;21134;-47
2021/03/22 01:05:40;;;;;;;0.13;0.13;;;;;;;-2.70;83.89;99973.61;1749778;80;21495;-47
2021/03/22 01:08:43;;;;;;;0.03;0.03;;;;;;;-2.70;83.92;99973.61;1760623;81;21477;-47
2021/03/22 01:11:43;;;;;;;0.62;0.62;;;;;;;-2.71;84.01;99971.97;1760350;80;21119;-47
2021/03/22 01:14:43;;;;;;;0.85;0.53;;;;;;;-2.74;84.04;99971.05;1788189;80;21137;-47
2021/03/22 01:17:44;;;;;;;0.10;0.10;;;;;;;-2.76;84.17;99976.29;1807367;79;21645;-47
2021/03/22 01:20:54;;;;;;;1.17;0.37;;;;;;;-2.78;84.24;99969.80;1815031;78;21111;-47
2021/03/22 01:23:56;;;;;;;0.70;0.70;;;;;;;-2.80;84.50;99969.17;1815075;79;21100;-47
2021/03/22 01:27:01;;;;;;;0.10;0.10;;;;;;;-2.83;84.54;99966.91;1802237;78;21143;-48
2021/03/22 01:30:02;;;;;;;0.10;0.10;;;;;;;-2.86;84.61;99960.12;1755115;81;21170;-47
2021/03/22 01:33:05;;;;;;;0.10;0.10;;;;;;;-2.87;84.76;99962.50;1809350;79;21446;-48
2021/03/22 01:36:09;;;;;;;0.00;0.00;;;;;;;-2.87;84.83;99956.30;1812840;79;21166;-47
2021/03/22 01:39:20;;;;;;;0.57;0.45;;;;;;;-2.90;84.93;99961.55;1733007;80;21157;-47
2021/03/22 01:42:52;;;;;;;0.25;0.25;;;;;;;-2.91;84.99;99953.75;1737869;80;21119;-47
2021/03/22 01:45:54;;;;;;;2.25;0.55;;;;;;;-2.92;85.07;99949.41;1759158;80;22147;-47
2021/03/22 01:48:54;;;;;;;0.10;0.10;;;;;;;-2.93;85.14;99947.77;1758098;80;21166;-47
2021/03/22 01:51:56;;;;;;;0.00;0.00;;;;;;;-2.94;85.20;99943.44;1778195;80;21218;-47
2021/03/22 01:54:57;;;;;;;0.45;0.45;;;;;;;-2.94;85.25;99940.76;1787651;79;22015;-47
2021/03/22 01:57:58;;;;;;;0.10;0.10;;;;;;;-2.94;85.34;99936.27;1764147;80;21139;-47
2021/03/22 02:00:58;;;;;;;0.10;0.10;;;;;;;-2.93;85.39;99934.41;1764213;79;22492;-47
2021/03/22 02:03:59;;;;;;;0.35;0.35;;;;;;;-2.92;85.47;99932.03;1790775;79;21165;-47
2021/03/22 02:07:01;;;;;;;0.10;0.10;;;;;;;-2.91;85.48;99940.37;1763781;81;21511;-48
2021/03/22 02:10:01;;;;;;;0.08;0.08;;;;;;;-2.87;85.54;99942.45;1715257;81;21538;-47
2021/03/22 02:13:02;;;;;;;0.08;0.08;;;;;;;-2.82;85.47;99934.63;1759665;81;21139;-48
2021/03/22 02:16:13;;;;;;;0.10;0.10;;;;;;;-2.76;85.39;99932.16;1760216;81;21728;-47
2021/03/22 02:19:54;;;;;;;0.10;0.10;;;;;;;-2.73;85.37;99932.56;1764251;81;21183;-47
2021/03/22 02:23:38;;;;;;;0.75;0.75;;;;;;;-2.72;85.29;99928.88;1763767;81;21146;-46
2021/03/22 02:27:04;;;;;;;;;;;;;;;-2.70;85.23;99930.81;1766993;79;21540;-47
2021/03/22 02:30:30;;;;;;;0.50;0.50;;;;;;;-2.67;85.16;99926.41;1736400;81;20273;-47
2021/03/22 02:34:15;;;;;;;0.30;0.30;;;;;;;-2.65;85.18;99922.17;1764210;81;40038;-47
2021/03/22 02:37:36;;;;;;;0.10;0.10;;;;;;;-2.63;85.10;99911.58;1764431;80;21197;-47
2021/03/22 02:40:48;;;;;;;0.03;0.03;;;;;;;-2.61;84.96;99913.53;1766276;81;21122;-47
2021/03/22 02:43:48;;;;;;;0.30;0.30;;;;;;;-2.57;84.79;99909.10;1767025;81;21146;-47
2021/03/22 02:46:50;;;;;;;0.15;0.15;;;;;;;-2.56;84.68;99904.89;1766794;81;21154;-47
2021/03/22 02:49:50;;;;;;;0.00;0.00;;;;;;;-2.55;84.61;99908.39;1748957;81;21172;-47
2021/03/22 02:53:39;;;;;;;0.10;0.10;;;;;;;-2.56;84.51;99905.41;1736337;82;21165;-48
2021/03/22 02:56:50;;;;;;;0.10;0.10;;;;;;;-2.57;84.46;99902.41;1748042;81;21357;-47
2021/03/22 02:59:56;;;;;;;0.42;0.42;;;;;;;-2.58;84.34;99910.14;1766920;81;21616;-47
2021/03/22 03:02:56;;;;;;;0.10;0.10;;;;;;;-2.59;84.26;99901.30;1766834;81;21130;-47
2021/03/22 03:05:58;;;;;;;0.00;0.00;;;;;;;-2.61;84.17;99894.81;1766985;79;21193;-47
2021/03/22 03:08:58;;;;;;;0.10;0.10;;;;;;;-2.62;84.17;99895.85;1736691;82;21015;-47
2021/03/22 03:11:59;;;;;;;0.10;0.10;;;;;;;-2.67;84.22;99894.31;1748188;81;21161;-47
2021/03/22 03:15:01;;;;;;;0.00;0.00;;;;;;;-2.70;84.22;99894.70;1766899;80;21611;-48
2021/03/22 03:18:03;;;;;;;0.45;0.45;;;;;;;-2.71;84.26;99889.05;1767030;80;21158;-47
2021/03/22 03:21:04;;;;;;;0.10;0.10;;;;;;;-2.71;84.28;99882.89;1766855;81;21978;-47
2021/03/22 03:24:05;;;;;;;1.17;0.62;;;;;;;-2.71;84.22;99890.39;1767242;79;21122;-47
2021/03/22 03:27:05;;;;;;;0.10;0.10;;;;;;;-2.72;84.25;99879.40;1753622;80;21758;-47
2021/03/22 03:30:06;;;;;;;0.10;0.10;;;;;;;-2.73;84.24;99883.09;1766881;81;21561;-47
2021/03/22 03:33:06;;;;;;;0.23;0.23;;;;;;;-2.74;84.24;99882.79;1766855;79;21154;-47
2021/03/22 03:36:07;;;;;;;0.10;0.10;;;;;;;-2.75;84.25;99879.79;1766107;79;21142;-47
2021/03/22 03:39:10;;;;;;;0.45;0.45;;;;;;;-2.76;84.23;99878.16;1766511;79;21230;-47
2021/03/22 03:42:13;;;;;;;0.10;0.10;;;;;;;-2.77;84.20;99877.83;1726420;83;21549;-47
2021/03/22 03:45:17;;;;;;;0.03;0.03;;;;;;;-2.76;84.32;99878.16;1734587;81;21170;-48
2021/03/22 03:48:25;;;;;;;1.17;0.37;;;;;;;-2.74;84.35;99873.43;1754047;81;21158;-47
2021/03/22 03:51:25;;;;;;;0.33;0.33;;;;;;;-2.72;84.37;99870.04;1758768;81;21951;-47
2021/03/22 03:54:26;;;;;;;0.20;0.20;;;;;;;-2.69;84.39;99865.61;1739556;81;21194;-47
2021/03/22 03:57:26;;;;;;;0.10;0.10;;;;;;;-2.68;84.40;99867.23;1744629;80;21169;-48
2021/03/22 04:00:42;;;;;;;0.20;0.20;;;;;;;-2.64;84.34;99866.33;1738481;82;21170;-47
2021/03/22 04:03:44;;;;;;;0.10;0.10;;;;;;;-2.62;84.32;99870.44;1741147;80;21205;-47
2021/03/22 04:06:45;;;;;;;0.10;0.10;;;;;;;-2.57;84.30;99866.30;1743897;80;21536;-47
2021/03/22 04:09:45;;;;;;;0.62;0.62;;;;;;;-2.52;84.22;99862.48;1739372;81;21595;-47
2021/03/22 04:12:47;;;;;;;0.20;0.20;;;;;;;-2.47;84.15;99862.70;1738275;82;21167;-47
2021/03/22 04:15:48;;;;;;;0.10;0.10;;;;;;;-2.42;84.29;99868.26;1739389;80;21627;-47
2021/03/22 04:18:50;;;;;;;0.33;0.33;;;;;;;-2.34;84.24;99860.52;1738550;80;21170;-47
2021/03/22 04:21:51;;;;;;;0.10;0.10;;;;;;;-2.24;84.11;99866.25;1738346;82;21169;-48
2021/03/22 04:24:51;;;;;;;0.00;0.00;;;;;;;-2.15;83.81;99862.33;1749511;80;21611;-47
2021/03/22 04:27:52;;;;;;;0.30;0.30;;;;;;;-2.07;83.62;99855.91;1740721;80;21406;-47
2021/03/22 04:30:52;;;;;;;0.28;0.28;;;;;;;-2.01;83.44;99853.72;1738401;82;21153;-47
2021/03/22 04:33:53;;;;;;;0.00;0.00;;;;;;;-1.97;83.28;99857.63;1742224;80;21181;-47
2021/03/22 04:36:53;;;;;;;0.10;0.10;;;;;;;-1.90;83.06;99863.78;1732022;81;21649;-47
2021/03/22 04:39:54;;;;;;;0.28;0.28;;;;;;;-1.80;82.83;99864.67;1736542;80;21104;-47
2021/03/22 04:42:54;;;;;;;0.20;0.20;;;;;;;-1.74;82.62;99856.58;1785200;78;21150;-47
2021/03/22 04:45:55;;;;;;;0.10;0.10;;;;;;;-1.68;82.59;99855.42;1730563;81;21147;-47
2021/03/22 04:48:56;;;;;;;0.53;0.53;;;;;;;-1.62;82.33;99858.61;1781761;78;21101;-47
2021/03/22 04:51:57;;;;;;;0.40;0.40;;;;;;;-1.53;82.19;99858.66;1749368;81;21199;-47
2021/03/22 04:54:57;;;;;;;0.00;0.00;;;;;;;-1.47;81.97;99857.80;1771268;79;21280;-47
2021/03/22 04:57:58;;;;;;;2.20;1.00;;;;;;;-1.40;81.71;99862.60;1788373;78;21177;-47
2021/03/22 05:00:58;;;;;;;0.17;0.17;;;;;;;-1.33;81.42;99858.02;1751369;81;21593;-48
2021/03/22 05:04:00;;;;;;;0.30;0.23;;;;;;;-1.25;81.18;99854.78;1771955;80;21118;-47
2021/03/22 05:07:01;;;;;;;0.17;0.17;;;;;;;-1.17;80.91;99849.15;1772022;79;21069;-47
2021/03/22 05:10:01;;;;;;;0.13;0.13;;;;;;;-1.08;80.78;99849.20;1823995;78;21162;-47
2021/03/22 05:13:03;;;;;;;0.70;0.25;;;;;;;-1.02;80.56;99849.65;1821996;78;21142;-47
2021/03/22 05:16:03;;;;;;;0.15;0.15;;;;;;;-0.95;80.41;99845.06;1745452;80;21592;-47
2021/03/22 05:19:04;;;;;;;0.23;0.23;;;;;;;-0.88;80.25;99847.17;1760597;81;21107;-47
2021/03/22 05:22:05;;;;;;;0.10;0.10;;;;;;;-0.79;80.00;99845.05;1747565;79;21581;-47
2021/03/22 05:25:05;;;;;;;0.10;0.10;;;;;;;-0.68;79.81;99848.86;1751393;80;21157;-47
2021/03/22 05:28:06;;;;;;;0.03;0.03;;;;;;;-0.55;79.49;99847.91;1733525;82;21134;-47
2021/03/22 05:31:07;;;;;;;0.62;0.62;;;;;;;-0.42;79.08;99846.95;1749644;80;21224;-47
2021/03/22 05:34:07;;;;;;;0.47;0.47;;;;;;;-0.31;78.43;99845.71;1733587;82;21127;-47
2021/03/22 05:37:08;;;;;;;0.35;0.35;;;;;;;-0.21;78.02;99849.22;1777836;78;21569;-47
2021/03/22 05:40:13;;;;;;;1.60;1.30;;;;;;;-0.13;77.57;99848.92;1784034;78;21198;-47
2021/03/22 05:43:52;;;;;;;0.25;0.25;;;;;;;-0.04;76.74;99855.64;1783371;78;21928;-47
2021/03/22 05:47:01;;;;;;;1.77;0.65;;;;;;;0.04;76.43;99863.10;1794993;78;21145;-47
2021/03/22 05:50:20;;;;;;;0.20;0.20;;;;;;;0.11;76.36;99863.31;1791805;78;21174;-47
2021/03/22 05:53:45;;;;;;;0.30;0.30;;;;;;;0.20;76.15;99862.50;1790873;78;21435;-47
2021/03/22 05:57:26;;;;;;;0.42;0.40;;;;;;;0.30;76.06;99852.56;1736826;80;21607;-47
2021/03/22 06:01:00;;;;;;;0.10;0.10;;;;;;;0.40;76.09;99846.94;1776610;79;21707;-47
2021/03/22 06:04:12;;;;;;;3.20;1.82;;;;;;;0.52;75.60;99850.18;1765263;80;21174;-47
2021/03/22 06:07:12;;;;;;;3.77;0.68;;;;;;;0.62;74.84;99863.39;1781908;78;21098;-48
2021/03/22 06:10:22;;;;;;;0.05;0.05;;;;;;;0.75;74.55;99852.97;1786707;79;21183;-47
2021/03/22 06:13:23;;;;;;;0.42;0.42;;;;;;;0.88;74.13;99860.01;1772390;79;21193;-47
2021/03/22 06:16:41;;;;;;;0.35;0.35;;;;;;;1.01;73.83;99853.60;1782197;78;21146;-48
2021/03/22 06:19:49;;;;;;;0.20;0.20;;;;;;;1.14;73.71;99861.48;1791457;78;21166;-48
2021/03/22 06:22:49;;;;;;;0.33;0.33;;;;;;;1.26;73.25;99859.62;1775930;79;21194;-47
2021/03/22 06:25:50;;;;;;;1.27;1.12;;;;;;;1.36;72.49;99855.52;1796080;79;21473;-47
2021/03/22 06:28:58;;;;;;;0.75;0.65;;;;;;;1.43;72.14;99858.38;1793387;79;21184;-45
2021/03/22 06:32:02;;;;;;;0.03;0.03;;;;;;;1.52;71.85;99849.98;1748362;80;21573;-44
2021/03/22 06:35:17;;;;;;;0.00;0.00;;;;;;;1.61;72.14;99845.34;1776801;79;21157;-44
2021/03/22 06:38:17;;;;;;;0.42;0.42;;;;;;;1.72;71.80;99838.30;1766994;79;21525;-44
2021/03/22 06:41:53;;;;;;;0.10;0.10;;;;;;;1.83;71.47;99836.64;1772939;79;21157;-45
2021/03/22 06:44:54;;;;;;;0.53;0.47;;;;;;;1.91;71.00;99844.38;1760743;80;21150;-44
2021/03/22 06:47:54;;;;;;;0.55;0.40;;;;;;;1.98;70.87;99845.07;1768913;79;21122;-44
2021/03/22 06:51:14;;;;;;;1.60;0.85;;;;;;;2.02;70.56;99840.02;1771465;80;21150;-44
2021/03/22 06:54:19;;;;;;;1.17;0.40;;;;;;;2.05;70.53;99838.18;1749934;81;21111;-44
2021/03/22 06:57:27;;;;;;;0.30;0.30;;;;;;;2.06;70.19;99832.56;1730800;81;21621;-47
2021/03/22 07:00:32;;;;;;;1.17;0.78;;;;;;;2.10;70.04;99831.04;1755540;80;21115;-47
2021/03/22 07:03:32;;;;;;;0.35;0.35;;;;;;;2.18;69.80;99831.19;1729633;82;21596;-48
2021/03/22 07:06:33;;;;;;;1.60;1.45;;;;;;;2.26;70.23;99834.84;1777606;80;21158;-47
2021/03/22 07:09:39;;;;;;;0.23;0.23;;;;;;;2.39;69.65;99840.48;1789129;80;21138;-47
2021/03/22 07:12:45;;;;;;;0.50;0.50;;;;;;;2.52;68.90;99846.95;1777421;80;21183;-48
2021/03/22 07:15:45;;;;;;;0.30;0.30;;;;;;;2.67;68.14;99844.23;1741440;82;21178;-48
2021/03/22 07:18:47;;;;;;;0.40;0.40;;;;;;;2.91;68.47;99839.00;1738203;81;21447;-47
2021/03/22 07:22:04;;;;;;;0.82;0.62;;;;;;;3.15;68.38;99833.47;1758325;80;21114;-47
2021/03/22 07:25:08;;;;;;;0.20;0.20;;;;;;;3.36;66.93;99827.33;1787707;80;21115;-46
2021/03/22 07:28:18;;;;;;;2.20;0.40;;;;;;;3.56;65.96;99821.91;1750537;81;21155;-47
2021/03/22 07:31:49;;;;;;;0.33;0.33;;;;;;;3.76;65.48;99831.67;1759932;81;21147;-47
2021/03/22 07:35:17;;;;;;;0.80;0.30;;;;;;;4.04;64.78;99815.00;1787573;80;21151;-47
2021/03/22 07:38:42;;;;;;;0.10;0.10;;;;;;;4.35;63.64;99816.70;1787649;80;21205;-48
2021/03/22 07:42:08;;;;;;;1.20;0.47;;;;;;;4.59;63.74;99818.04;1787237;79;21152;-48
2021/03/22 07:45:32;;;;;;;0.57;0.57;;;;;;;4.90;63.28;99811.58;1753052;81;21197;-48
2021/03/22 07:48:50;;;;;;;1.22;1.15;;;;;;;5.21;61.25;99800.98;1762055;80;21179;-48
2021/03/22 07:52:11;;;;;;;0.88;0.82;;;;;;;5.36;60.43;99803.80;1749623;81;21202;-44
2021/03/22 07:55:34;;;;;;;1.20;1.20;;;;;;;5.53;58.79;99793.61;1771230;80;21158;-45
2021/03/22 07:59:01;;;;;;;1.60;1.50;;;;;;;5.70;57.55;99797.50;1756199;81;21117;-45
2021/03/22 08:02:35;;;;;;;0.60;0.60;;;;;;;5.94;56.62;99788.98;1777545;79;21868;-44
2021/03/22 08:05:43;;;;;;;2.67;1.52;;;;;;;6.09;55.37;99786.88;1757519;80;21997;-45
2021/03/22 08:09:13;;;;;;;0.60;0.60;;;;;;;6.29;55.29;99784.22;1755922;81;21191;-45
2021/03/22 08:12:45;;;;;;;0.62;0.57;;;;;;;6.48;54.07;99777.76;1696455;83;20992;-45
2021/03/22 08:16:12;;;;;;;0.60;0.30;;;;;;;6.61;54.61;99780.48;1777077;79;21091;-45
2021/03/22 08:19:21;;;;;;;0.13;0.10;;;;;;;6.73;55.11;99777.53;1778624;80;21170;-47
2021/03/22 08:22:43;;;;;;;0.98;0.88;;;;;;;6.93;56.29;99769.38;1729837;82;21626;-48
2021/03/22 08:25:57;;;;;;;3.95;0.70;;;;;;;7.11;55.27;99774.80;1748394;80;21156;-48
2021/03/22 08:29:16;;;;;;;0.47;0.33;;;;;;;7.44;53.20;99764.42;1730360;81;21485;-48
2021/03/22 08:32:27;;;;;;;0.72;0.72;;;;;;;7.54;53.58;99773.91;1751439;81;21171;-48
2021/03/22 08:35:43;;;;;;;0.60;0.60;;;;;;;7.55;53.08;99766.03;1751055;81;21101;-48
2021/03/22 08:38:58;;;;;;;0.20;0.20;;;;;;;7.58;53.61;99770.91;1724333;83;21522;-48
2021/03/22 08:42:30;;;;;;;1.25;0.80;;;;;;;7.71;53.11;99763.52;1769093;80;21115;-45
2021/03/22 08:45:46;;;;;;;0.40;0.33;;;;;;;7.85;52.12;99762.95;1732870;81;21096;-45
2021/03/22 08:48:47;;;;;;;0.57;0.35;;;;;;;7.87;52.11;99754.78;1740457;80;21541;-45
2021/03/22 08:51:47;;;;;;;0.60;0.53;;;;;;;7.95;51.64;99752.02;1779080;80;21173;-44
2021/03/22 08:54:47;;;;;;;0.40;0.35;;;;;;;8.08;51.45;99748.69;1761751;81;21149;-44
2021/03/22 08:58:09;;;;;;;0.20;0.20;;;;;;;8.23;50.16;99745.62;1761319;80;21126;-44
2021/03/22 09:01:30;;;;;;;3.87;0.98;;;;;;;8.39;49.96;99742.56;1758436;80;21179;-44
2021/03/22 09:04:38;;;;;;;1.27;1.10;;;;;;;8.42;50.46;99743.91;1771892;79;21149;-45
2021/03/22 09:07:38;;;;;;;1.02;0.57;;;;;;;8.52;50.16;99745.20;1735478;80;21176;-45
2021/03/22 09:10:45;;;;;;;1.35;1.07;;;;;;;8.61;50.56;99743.51;1749458;80;21169;-44
2021/03/22 09:13:48;;;;;;;0.25;0.25;;;;;;;8.76;48.76;99737.69;1731483;82;21149;-44
2021/03/22 09:16:55;;;;;;;0.30;0.30;;;;;;;8.76;48.17;99741.77;1701367;81;21177;-46
2021/03/22 09:20:03;;;;;;;1.40;1.30;;;;;;;8.88;47.88;99734.05;1736255;81;21107;-45
2021/03/22 09:23:10;;;;;;;0.93;0.53;;;;;;;8.99;47.40;99724.66;1811118;79;21162;-45
2021/03/22 09:26:13;;;;;;;0.50;0.47;;;;;;;9.04;48.06;99728.70;1774996;80;21191;-45
2021/03/22 09:29:42;;;;;;;0.30;0.30;;;;;;;9.21;46.67;99730.20;1754169;81;21633;-44
2021/03/22 09:32:48;;;;;;;0.70;0.70;;;;;;;9.15;46.39;99728.60;1754171;81;21135;-44
2021/03/22 09:36:13;;;;;;;4.30;0.88;;;;;;;9.09;46.44;99723.77;1751767;80;21118;-46
2021/03/22 09:39:31;;;;;;;2.08;0.93;;;;;;;8.96;46.70;99722.52;1750793;80;21154;-45
2021/03/22 09:42:32;;;;;;;0.10;0.10;;;;;;;8.88;46.93;99723.15;1781731;80;21490;-47
2021/03/22 09:45:32;;;;;;;0.40;0.40;;;;;;;8.69;46.21;99723.02;1765024;79;21150;-48
2021/03/22 09:48:41;;;;;;;0.57;0.35;;;;;;;8.51;47.66;99735.41;1784988;80;21122;-45
2021/03/22 09:51:35;;;;;;;1.35;0.80;;;;;;;8.51;48.18;99731.33;1757314;80;21503;-45
2021/03/22 09:54:44;;;;;;;1.27;0.88;;;;;;;8.47;47.97;99730.25;1761635;80;21151;-45
2021/03/22 09:57:49;;;;;;;0.10;0.10;;;;;;;8.39;47.93;99737.64;1740695;82;21158;-46
2021/03/22 10:01:06;;;;;;;0.35;0.35;;;;;;;8.22;47.73;99738.01;1740170;82;21560;-45
2021/03/22 10:04:25;;;;;;;1.37;1.27;;;;;;;8.06;47.95;99729.66;1766611;80;21242;-48
2021/03/22 10:07:37;;;;;;;1.45;0.33;;;;;;;7.91;48.24;99730.02;1780878;79;21116;-48
2021/03/22 10:10:47;;;;;;;0.10;0.10;;;;;;;7.83;48.59;99731.12;1780142;80;21146;-48
2021/03/22 10:13:50;;;;;;;0.30;0.30;;;;;;;7.96;49.43;99729.16;1773991;80;21745;-48
2021/03/22 10:16:50;;;;;;;0.80;0.80;;;;;;;8.10;49.77;99722.02;1742670;82;21151;-48
2021/03/22 10:19:51;;;;;;;3.17;1.12;;;;;;;8.27;49.00;99714.84;1708458;81;21177;-49
2021/03/22 10:22:52;;;;;;;0.05;0.03;;;;;;;8.35;48.76;99726.48;1779460;80;21134;-48
2021/03/22 10:25:52;;;;;;;0.20;0.20;;;;;;;8.35;48.93;99717.52;1789886;80;21166;-46
2021/03/22 10:28:52;;;;;;;0.30;0.30;;;;;;;8.49;49.59;99712.28;1777712;79;21131;-48
2021/03/22 10:32:15;;;;;;;0.75;0.65;;;;;;;8.73;47.72;99710.99;1792540;80;21478;-48
2021/03/22 10:35:21;;;;;;;0.65;0.65;;;;;;;8.95;46.62;99704.56;1760179;79;21134;-48
2021/03/22 10:38:30;;;;;;;4.03;0.88;;;;;;;9.25;46.11;99697.98;1781441;79;21130;-48
2021/03/22 10:41:35;;;;;;;0.20;0.20;;;;;;;9.44;45.76;99698.03;1761798;81;21461;-48
2021/03/22 10:44:41;;;;;;;1.25;1.07;;;;;;;9.67;46.06;99685.50;1762617;81;21138;-48
2021/03/22 10:47:41;;;;;;;0.75;0.75;;;;;;;9.90;47.00;99672.92;1720897;81;21486;-49
2021/03/22 10:50:42;;;;;;;1.20;0.80;;;;;;;10.22;45.62;99675.48;1791929;78;21520;-49
2021/03/22 10:54:07;;;;;;;0.50;0.50;;;;;;;10.59;43.81;99666.22;1796253;79;21126;-48
2021/03/22 10:57:08;;;;;;;0.55;0.55;;;;;;;10.86;42.36;99667.66;1774852;79;21186;-48
2021/03/22 11:00:28;;;;;;;0.70;0.50;;;;;;;10.88;41.01;99663.23;1732345;81;21672;-48
2021/03/22 11:03:31;;;;;;;0.40;0.40;;;;;;;10.80;41.57;99661.20;1784503;79;21189;-48
2021/03/22 11:06:37;;;;;;;2.17;2.00;;;;;;;10.61;41.98;99670.80;1786960;78;21123;-47
2021/03/22 11:09:37;;;;;;;1.32;0.82;;;;;;;10.33;41.15;99673.42;1770565;79;21152;-48
2021/03/22 11:12:39;;;;;;;0.15;0.15;;;;;;;10.12;40.86;99667.45;1783223;80;21688;-48
2021/03/22 11:15:44;;;;;;;0.42;0.42;;;;;;;9.87;41.57;99665.33;1790687;79;21633;-48
2021/03/22 11:18:46;;;;;;;0.50;0.50;;;;;;;9.64;41.86;99667.53;1786873;79;21481;-48
2021/03/22 11:21:46;;;;;;;1.22;0.75;;;;;;;9.25;41.38;99669.92;1747916;81;21131;-48
2021/03/22 11:24:50;;;;;;;1.15;1.05;;;;;;;8.87;41.85;99665.65;1745436;81;21506;-45
2021/03/22 11:28:04;;;;;;;1.95;0.20;;;;;;;8.51;42.56;99671.98;1764567;81;21134;-45
2021/03/22 11:31:24;;;;;;;1.52;0.90;;;;;;;8.18;44.16;99688.78;1752699;80;21202;-48
2021/03/22 11:34:50;;;;;;;1.20;0.60;;;;;;;7.77;44.93;99681.39;1778167;80;21127;-48
2021/03/22 11:37:59;;;;;;;0.25;0.25;;;;;;;7.37;46.46;99691.86;1761034;79;21126;-48
2021/03/22 11:40:59;;;;;;;0.10;0.10;;;;;;;7.01;47.86;99698.20;1778366;80;21115;-49
2021/03/22 11:44:32;;;;;;;0.20;0.20;;;;;;;6.65;48.15;99694.17;1754123;81;21151;-48
2021/03/22 11:47:48;;;;;;;2.75;0.45;;;;;;;6.41;48.44;99695.23;1771576;80;21532;-48
2021/03/22 11:50:51;;;;;;;1.35;1.10;;;;;;;6.27;48.53;99699.55;1771717;80;21115;-47
2021/03/22 11:54:14;;;;;;;0.33;0.33;;;;;;;6.21;48.24;99697.93;1717034;80;21537;-48
2021/03/22 11:57:20;;;;;;;0.78;0.78;;;;;;;6.22;48.63;99694.13;1765499;81;21423;-48
2021/03/22 12:00:35;;;;;;;0.10;0.10;;;;;;;6.32;48.83;99693.33;1739142;80;21520;-48
2021/03/22 12:03:37;;;;;;;1.42;1.32;;;;;;;6.43;48.84;99694.98;1764302;80;21858;-47
2021/03/22 12:06:40;;;;;;;0.55;0.55;;;;;;;6.57;48.39;99691.16;1789510;79;21704;-48
2021/03/22 12:09:41;;;;;;;5.62;1.55;;;;;;;6.65;48.17;99693.33;1763257;81;21131;-48
2021/03/22 12:12:41;;;;;;;0.15;0.15;;;;;;;6.69;47.89;99701.21;1769703;80;21127;-48
2021/03/22 12:15:42;;;;;;;5.92;1.10;;;;;;;6.65;47.37;99696.88;1762565;80;21454;-48
2021/03/22 12:18:44;;;;;;;0.68;0.68;;;;;;;6.59;47.78;99699.86;1737410;82;21704;-48
2021/03/22 12:21:45;;;;;;;0.03;0.03;;;;;;;6.52;48.94;99695.23;1767768;81;21122;-48
2021/03/22 12:24:47;;;;;;;1.25;0.35;;;;;;;6.43;49.46;99693.08;1767426;81;21122;-48
2021/03/22 12:27:48;;;;;;;0.65;0.65;;;;;;;6.40;49.49;99688.16;1768156;80;21561;-48
2021/03/22 12:30:49;;;;;;;3.40;0.98;;;;;;;6.40;49.06;99689.52;1742821;81;21715;-48
2021/03/22 12:33:49;;;;;;;0.53;0.53;;;;;;;6.46;49.51;99685.73;1749731;81;21144;-47
2021/03/22 12:36:51;;;;;;;1.35;0.53;;;;;;;6.56;49.58;99693.63;1750428;81;21143;-48
2021/03/22 12:39:52;;;;;;;0.88;0.88;;;;;;;6.64;49.54;99689.00;1750414;81;21602;-48
2021/03/22 12:42:53;;;;;;;0.20;0.20;;;;;;;6.71;49.38;99692.80;1750448;81;21123;-48
2021/03/22 12:45:55;;;;;;;0.28;0.28;;;;;;;6.74;49.04;99687.63;1764859;80;21142;-48
2021/03/22 12:48:55;;;;;;;1.12;1.12;;;;;;;6.76;48.77;99685.47;1771528;80;21157;-48
2021/03/22 12:51:55;;;;;;;0.70;0.65;;;;;;;6.80;49.18;99682.48;1750278;80;21125;-49
2021/03/22 12:54:59;;;;;;;0.50;0.50;;;;;;;6.83;48.87;99683.29;1722301;83;21221;-47
2021/03/22 12:58:05;;;;;;;1.50;1.40;;;;;;;6.86;48.76;99686.00;1722624;83;21180;-49
2021/03/22 13:01:06;;;;;;;1.30;0.95;;;;;;;6.94;49.27;99677.84;1722412;83;21576;-48
2021/03/22 13:04:08;;;;;;;0.85;0.85;;;;;;;7.01;48.96;99675.66;1738754;80;21142;-47
2021/03/22 13:07:11;;;;;;;1.22;0.75;;;;;;;7.09;49.35;99681.88;1774330;80;21632;-47
2021/03/22 13:10:12;;;;;;;0.75;0.75;;;;;;;7.18;49.21;99698.45;1766594;78;21486;-47
2021/03/22 13:13:13;;;;;;;1.27;1.17;;;;;;;7.26;48.83;99694.61;1766321;80;21442;-48
2021/03/22 13:16:15;;;;;;;0.47;0.47;;;;;;;7.27;47.93;99690.82;1787050;80;21000;-48
2021/03/22 13:19:17;;;;;;;0.47;0.47;;;;;;;7.22;48.10;99690.84;1753778;80;21143;-48
2021/03/22 13:22:25;;;;;;;1.30;0.62;;;;;;;7.21;48.43;99689.19;1756103;81;21557;-47
2021/03/22 13:25:27;;;;;;;0.62;0.45;;;;;;;7.16;47.69;99684.32;1739016;80;21141;-48
2021/03/22 13:28:40;;;;;;;0.23;0.23;;;;;;;7.10;47.51;99684.33;1766282;80;21636;-48
2021/03/22 13:31:43;;;;;;;0.55;0.55;;;;;;;7.08;47.25;99678.91;1780918;80;21190;-48
2021/03/22 13:34:45;;;;;;;0.60;0.53;;;;;;;7.13;46.71;99683.52;1736656;80;21131;-47
2021/03/22 13:37:45;;;;;;;0.20;0.20;;;;;;;7.16;46.67;99689.20;1746866;80;21170;-48
2021/03/22 13:40:46;;;;;;;0.53;0.53;;;;;;;7.16;47.28;99686.48;1727788;83;21139;-47
2021/03/22 13:43:46;;;;;;;1.62;1.17;;;;;;;7.16;47.93;99689.20;1730984;81;21188;-48
2021/03/22 13:46:47;;;;;;;0.80;0.80;;;;;;;7.15;47.78;99675.36;1714187;83;21151;-47
2021/03/22 13:49:48;;;;;;;0.65;0.50;;;;;;;7.14;47.46;99685.94;1719250;83;21486;-48
2021/03/22 13:52:48;;;;;;;0.82;0.82;;;;;;;7.14;47.08;99683.23;1731416;80;21126;-48
2021/03/22 13:55:51;;;;;;;1.75;1.15;;;;;;;7.15;46.71;99675.91;1737372;81;21130;-48
2021/03/22 13:58:51;;;;;;;0.47;0.47;;;;;;;7.22;47.24;99681.84;1738857;81;21150;-47
2021/03/22 14:01:52;;;;;;;2.20;1.95;;;;;;;7.27;47.58;99683.19;1757693;81;21667;-48
2021/03/22 14:04:53;;;;;;;1.12;1.02;;;;;;;7.24;47.46;99685.91;1757808;81;21159;-47
2021/03/22 14:07:53;;;;;;;0.65;0.60;;;;;;;7.24;47.15;99691.34;1729219;82;21147;-48
2021/03/22 14:10:54;;;;;;;0.78;0.78;;;;;;;7.18;47.18;99689.75;1722090;82;21150;-48
2021/03/22 14:13:57;;;;;;;3.08;1.12;;;;;;;7.08;47.48;99699.28;1698537;84;21206;-48
2021/03/22 14:16:59;;;;;;;0.85;0.85;;;;;;;6.97;47.51;99701.73;1723813;83;21539;-47
2021/03/22 14:20:01;;;;;;;2.55;0.93;;;;;;;6.81;48.28;99700.39;1716052;82;21286;-48
2021/03/22 14:23:03;;;;;;;0.68;0.68;;;;;;;6.67;49.36;99700.66;1730696;82;21162;-47
2021/03/22 14:26:04;;;;;;;5.22;1.90;;;;;;;6.55;50.44;99700.95;1706977;82;21151;-47
2021/03/22 14:29:05;;;;;;;1.90;1.70;;;;;;;6.44;51.50;99693.33;1728464;81;21579;-48
2021/03/22 14:32:06;;;;;;;1.47;1.22;;;;;;;6.33;52.09;99696.30;1701595;84;21178;-48
2021/03/22 14:35:07;;;;;;;3.27;1.67;;;;;;;6.20;52.61;99698.45;1701234;84;21158;-48
2021/03/22 14:38:10;;;;;;;1.43;0.87;;;;;;;6.09;53.20;99704.95;1716231;82;21174;-47
2021/03/22 14:41:10;;;;;;;1.02;1.02;;;;;;;5.99;53.50;99701.67;1758064;80;21114;-48
2021/03/22 14:44:12;;;;;;;1.12;0.50;;;;;;;5.92;54.07;99696.20;1758437;80;21163;-48
2021/03/22 14:47:12;;;;;;;2.98;1.17;;;;;;;5.86;54.37;99697.25;1772142;80;21174;-48